This is the latest recevied weather packets stored in our database for station/object WL7CLI. If no packets are shown the sender has not sent any weather packets the latest 10 day(s).
| Time | Temp. | Humidity | Pressure | Rain* | Wind** | Luminosity | Snow |
|---|---|---|---|---|---|---|---|
| 1777356971 | 9.44° C | 79% | 1012.3 hPa | 0 mm | - | - | - |
| 1777355903 | 10° C | 79% | 1012.5 hPa | 0 mm | - | - | - |
| 1777355771 | 10° C | 79% | 1012.2 hPa | 0 mm | - | - | - |
| 1777354572 | 10° C | 78% | 1011.7 hPa | 0 mm | - | - | - |
| 1777354103 | 10° C | 77% | 1011.9 hPa | 0 mm | - | - | - |
| 1777353371 | 10° C | 78% | 1011.5 hPa | 0 mm | - | - | - |
| 1777352304 | 10° C | 80% | 1011.4 hPa | 0 mm | - | - | - |
| 1777352172 | 10° C | 80% | 1011 hPa | 0 mm | - | - | - |
| 1777350971 | 10° C | 79% | 1010.5 hPa | 0 mm | - | - | - |
| 1777350503 | 10.56° C | 79% | 1010.8 hPa | 0 mm | - | - | - |
| 1777349771 | 10° C | 79% | 1010.4 hPa | 0 mm | - | - | - |
| 1777348704 | 10° C | 81% | 1010.4 hPa | 0 mm | - | - | - |
| 1777348571 | 10° C | 81% | 1010 hPa | 0 mm | - | - | - |
| 1777341997 | 11.67° C | 76% | 1007.3 hPa | 0 mm | - | - | - |
| 1777341525 | 11.67° C | 76% | 1007.3 hPa | 0 mm | - | - | - |
| 1777341304 | 11.67° C | 76% | 1007 hPa | 0 mm | - | - | - |
| 1777340797 | 11.67° C | 76% | 1006.9 hPa | 0 mm | - | - | - |
| 1777340103 | 11.67° C | 76% | 1006.8 hPa | 0 mm | - | - | - |
| 1777339725 | 12.22° C | 76% | 1006.8 hPa | 0 mm | - | - | - |
| 1777338902 | 12.22° C | 75% | 1006.2 hPa | 0 mm | - | - | - |
| 1777338397 | 12.22° C | 75% | 1006.2 hPa | 0 mm | - | - | - |
| 1777337925 | 12.78° C | 75% | 1006.2 hPa | 0 mm | - | - | - |
| 1777337704 | 12.78° C | 75% | 1005.9 hPa | 0 mm | - | - | - |
| 1777337196 | 12.78° C | 75% | 1005.8 hPa | 0 mm | - | - | - |
| 1777336503 | 12.78° C | 75% | 1005.7 hPa | 0 mm | - | - | - |
* Rain latest hour (hover to see other rain measurements)
** Current wind speed in m/s (hover to see current wind gust speed)